createdAt,value
2019-04-04T00:01:36.261Z,97853.20
2019-04-04T00:04:26.898Z,97856.25
2019-04-04T00:07:17.525Z,97847.83
2019-04-04T00:13:14.875Z,97842.20
2019-04-04T00:16:05.543Z,97834.32
2019-04-04T00:18:58.490Z,97844.31
2019-04-04T00:21:39.255Z,97840.08
2019-04-04T00:24:29.885Z,97837.30
2019-04-04T00:27:13.874Z,97832.15
2019-04-04T00:29:56.573Z,97838.09
2019-04-04T00:32:47.227Z,97832.91
2019-04-04T00:35:53.887Z,97825.28
2019-04-04T00:38:20.796Z,97828.34
2019-04-04T00:41:12.975Z,97811.31
2019-04-04T00:43:52.787Z,97813.84
2019-04-04T00:46:43.441Z,97807.81
2019-04-04T00:49:35.525Z,97783.37
2019-04-04T00:52:16.421Z,97805.02
2019-04-04T00:58:56.151Z,97807.84
2019-04-04T01:01:46.826Z,97803.66
2019-04-04T01:04:31.287Z,97793.86
2019-04-04T01:07:12.772Z,97791.34
2019-04-04T01:12:47.046Z,97790.18
2019-04-04T01:15:49.850Z,97791.38
2019-04-04T01:18:21.149Z,97792.96
2019-04-04T01:21:11.780Z,97796.97
2019-04-04T01:24:02.439Z,97793.27
2019-04-04T01:26:53.109Z,97793.08
2019-04-04T01:35:55.806Z,97793.23
2019-04-04T01:44:14.320Z,97795.90
2019-04-04T01:46:45.966Z,97791.77
2019-04-04T01:49:47.299Z,97794.97
2019-04-04T01:58:31.202Z,97808.30
2019-04-04T02:01:21.802Z,97809.14
2019-04-04T02:04:12.426Z,97806.73
2019-04-04T02:09:48.360Z,97800.78
2019-04-04T02:12:39.386Z,97804.45
2019-04-04T02:18:28.365Z,97792.28
2019-04-04T02:26:48.429Z,97787.75
2019-04-04T02:29:39.872Z,97792.57
2019-04-04T02:40:57.542Z,97795.86
2019-04-04T02:43:48.168Z,97787.23
2019-04-04T02:46:38.814Z,97789.08
2019-04-04T02:49:29.709Z,97783.39
2019-04-04T02:52:31.273Z,97775.72
2019-04-04T02:55:40.945Z,97781.08
2019-04-04T02:58:31.575Z,97773.28
2019-04-04T03:01:22.149Z,97774.80
2019-04-04T03:04:13.919Z,97765.05
2019-04-04T03:06:58.542Z,97771.27
2019-04-04T03:09:58.187Z,97768.80
2019-04-04T03:12:48.855Z,97767.68
2019-04-04T03:15:47.404Z,97757.03
2019-04-04T03:18:28.196Z,97755.55
2019-04-04T03:21:22.282Z,97752.64
2019-04-04T03:24:20.552Z,97752.02
2019-04-04T03:27:11.157Z,97754.91
2019-04-04T03:30:01.967Z,97760.80
2019-04-04T03:33:11.876Z,97763.89
2019-04-04T03:36:14.161Z,97767.37
2019-04-04T03:38:47.731Z,97758.84
2019-04-04T03:41:38.630Z,97764.80
2019-04-04T03:44:09.966Z,97770.08
2019-04-04T03:50:05.024Z,97770.84
2019-04-04T03:55:43.061Z,97770.84
2019-04-04T03:58:14.860Z,97770.09
2019-04-04T04:01:05.488Z,97765.46
2019-04-04T04:06:35.947Z,97768.63
2019-04-04T04:09:27.288Z,97776.27
2019-04-04T04:12:11.134Z,97781.00
2019-04-04T04:15:11.675Z,97774.55
2019-04-04T04:21:09.767Z,97782.63
2019-04-04T04:32:03.185Z,97781.70
2019-04-04T04:38:03.891Z,97784.33
2019-04-04T04:40:54.762Z,97784.09
2019-04-04T04:46:12.016Z,97784.17
2019-04-04T04:51:47.067Z,97778.47
2019-04-04T04:57:43.707Z,97779.41
2019-04-04T05:00:47.289Z,97781.89
2019-04-04T05:03:40.124Z,97782.75
2019-04-04T05:06:30.797Z,97780.56
2019-04-04T05:09:21.447Z,97775.91
2019-04-04T05:12:12.040Z,97779.52
2019-04-04T05:17:48.196Z,97783.09
2019-04-04T05:21:01.389Z,97779.61
2019-04-04T05:26:25.122Z,97779.52
2019-04-04T05:32:00.266Z,97783.61
2019-04-04T05:37:37.879Z,97789.47
2019-04-04T05:40:35.796Z,97786.66
2019-04-04T05:43:26.403Z,97792.23
2019-04-04T05:46:19.132Z,97794.77
2019-04-04T05:54:27.455Z,97804.84
2019-04-04T06:00:03.046Z,97810.87
2019-04-04T06:03:15.174Z,97818.73
2019-04-04T06:06:10.461Z,97793.92
2019-04-04T06:09:01.479Z,97822.06
2019-04-04T06:12:02.922Z,97812.71
2019-04-04T06:17:40.570Z,97816.12
2019-04-04T06:20:35.253Z,97813.86
2019-04-04T06:23:07.820Z,97812.60
2019-04-04T06:29:01.474Z,97806.96
2019-04-04T06:31:52.164Z,97805.34
2019-04-04T06:37:27.461Z,97795.10
2019-04-04T06:44:05.396Z,97796.67
2019-04-04T06:46:55.754Z,97804.50
2019-04-04T06:53:36.540Z,97792.93
2019-04-04T06:59:34.218Z,97790.20
2019-04-04T07:05:51.686Z,97780.97
2019-04-04T07:08:43.295Z,97771.97
2019-04-04T07:19:58.431Z,97766.08
2019-04-04T07:22:49.513Z,97755.38
2019-04-04T07:25:42.947Z,97746.30
2019-04-04T07:28:33.600Z,97743.13
2019-04-04T07:31:24.445Z,97752.77
2019-04-04T07:34:15.209Z,97753.11
2019-04-04T07:37:05.888Z,97746.47
2019-04-04T07:39:56.496Z,97745.63
2019-04-04T07:42:48.112Z,97747.73
2019-04-04T07:45:49.333Z,97749.42
2019-04-04T07:48:39.966Z,97751.42
2019-04-04T07:51:30.937Z,97753.89
2019-04-04T07:54:13.322Z,97752.03
2019-04-04T07:57:04.318Z,97748.23
2019-04-04T08:02:40.514Z,97739.00
2019-04-04T08:05:50.308Z,97736.79
2019-04-04T08:09:00.132Z,97695.32
2019-04-04T08:11:50.780Z,97748.03
2019-04-04T08:14:22.070Z,97738.53
2019-04-04T08:17:12.714Z,97747.27
2019-04-04T08:31:24.977Z,97739.38
2019-04-04T08:36:58.087Z,97742.50
2019-04-04T08:42:33.923Z,97735.50
2019-04-04T08:45:56.422Z,97736.48
2019-04-04T08:48:47.275Z,97728.89
2019-04-04T08:54:21.431Z,97722.80
2019-04-04T08:57:12.239Z,97725.66
2019-04-04T09:00:02.955Z,97723.14
2019-04-04T09:03:13.082Z,97723.69
2019-04-04T09:06:03.718Z,97711.28
2019-04-04T09:14:24.262Z,97701.44
2019-04-04T09:20:30.665Z,97703.33
2019-04-04T09:23:22.290Z,97706.98
2019-04-04T09:26:12.951Z,97730.11
2019-04-04T09:29:24.788Z,97710.62
2019-04-04T09:32:15.406Z,97706.16
2019-04-04T09:38:13.416Z,97699.84
2019-04-04T09:43:48.625Z,97696.53
2019-04-04T09:46:39.381Z,97720.25
2019-04-04T09:52:37.123Z,97677.64
2019-04-04T09:55:27.822Z,97660.83
2019-04-04T09:58:49.508Z,97698.77
2019-04-04T10:01:43.378Z,97681.47
2019-04-04T10:10:37.296Z,97676.02
2019-04-04T10:13:23.717Z,97690.75
2019-04-04T10:19:22.876Z,97685.86
2019-04-04T10:25:56.881Z,97655.06
2019-04-04T10:29:16.469Z,97661.27
2019-04-04T10:32:09.410Z,97685.95
2019-04-04T10:34:42.808Z,97676.55
2019-04-04T10:37:53.046Z,97656.23
2019-04-04T10:40:55.459Z,97667.59
2019-04-04T10:46:11.839Z,97641.77
2019-04-04T10:49:02.650Z,97637.30
2019-04-04T10:51:53.331Z,97666.89
2019-04-04T10:54:43.971Z,97617.61
2019-04-04T10:57:34.759Z,97643.63
2019-04-04T11:00:25.280Z,97655.49
2019-04-04T11:03:15.896Z,97652.43
2019-04-04T11:06:06.562Z,97661.39
2019-04-04T11:08:57.180Z,97665.05
2019-04-04T11:11:58.758Z,97666.14
2019-04-04T11:14:34.341Z,97671.67
2019-04-04T11:20:42.167Z,97680.09
2019-04-04T11:26:00.836Z,97679.09
2019-04-04T11:31:35.730Z,97670.95
2019-04-04T11:34:26.330Z,97673.34
2019-04-04T11:37:36.053Z,97684.23
2019-04-04T11:40:38.667Z,97680.34
2019-04-04T11:43:35.904Z,97677.83
2019-04-04T11:49:22.534Z,97659.04
2019-04-04T11:51:54.918Z,97660.61
2019-04-04T11:57:30.914Z,97649.67
2019-04-04T12:03:45.894Z,97635.49
2019-04-04T12:07:06.802Z,97622.89
2019-04-04T12:10:07.220Z,97641.20
2019-04-04T12:12:41.436Z,97633.48
2019-04-04T12:21:24.409Z,97632.88
2019-04-04T12:24:15.053Z,97632.22
2019-04-04T12:27:05.652Z,97611.33
2019-04-04T12:32:22.057Z,97610.59
2019-04-04T12:35:12.718Z,97629.10
2019-04-04T12:38:08.976Z,97506.53
2019-04-04T12:43:52.633Z,97624.34
2019-04-04T12:47:02.781Z,97616.03
2019-04-04T12:49:53.527Z,97621.00
2019-04-04T12:52:44.155Z,97619.27
2019-04-04T12:55:54.394Z,97622.55
2019-04-04T13:01:37.329Z,97622.34
2019-04-04T13:04:31.792Z,97620.34
2019-04-04T13:09:55.259Z,97613.19
2019-04-04T13:12:47.678Z,97617.38
2019-04-04T13:15:43.831Z,97605.72
2019-04-04T13:21:01.385Z,97611.78
2019-04-04T13:23:52.343Z,97597.41
2019-04-04T13:26:44.771Z,97601.80
2019-04-04T13:29:35.402Z,97595.13
2019-04-04T13:32:37.551Z,97597.91
2019-04-04T13:38:16.423Z,97600.11
2019-04-04T13:41:07.179Z,97598.76
2019-04-04T13:43:57.768Z,97592.41
2019-04-04T13:49:31.709Z,97577.11
2019-04-04T13:52:24.212Z,97583.88
2019-04-04T13:58:10.749Z,97568.67
2019-04-04T14:03:44.517Z,97547.78
2019-04-04T14:06:54.209Z,97547.14
2019-04-04T14:18:45.240Z,97556.23
2019-04-04T14:21:27.688Z,97551.20
2019-04-04T14:24:18.287Z,97544.03
2019-04-04T14:27:11.232Z,97538.91
2019-04-04T14:32:45.618Z,97549.33
2019-04-04T14:35:36.491Z,97545.02
2019-04-04T14:43:59.838Z,97544.11
2019-04-04T14:46:40.560Z,97551.23
2019-04-04T14:50:07.111Z,97551.88
2019-04-04T14:55:49.939Z,97542.30
2019-04-04T14:58:34.260Z,97531.27
2019-04-04T15:01:06.726Z,97535.48
2019-04-04T15:06:42.662Z,97540.95
2019-04-04T15:09:33.298Z,97544.13
2019-04-04T15:12:23.973Z,97531.48
2019-04-04T15:21:12.786Z,97551.34
2019-04-04T15:24:15.149Z,97558.05
2019-04-04T15:26:53.512Z,97544.64
2019-04-04T15:29:45.114Z,97551.97
2019-04-04T15:32:36.460Z,97542.52
2019-04-04T15:35:45.758Z,97539.05
2019-04-04T15:38:37.195Z,97419.70
2019-04-04T15:41:36.906Z,97533.16
2019-04-04T15:44:12.066Z,97532.34
2019-04-04T15:47:02.800Z,97542.10
2019-04-04T15:49:53.478Z,97536.95
2019-04-04T15:52:44.141Z,97538.57
2019-04-04T15:58:26.916Z,97549.47
2019-04-04T16:01:17.701Z,97540.52
2019-04-04T16:06:52.123Z,97540.95
2019-04-04T16:12:26.009Z,97545.27
2019-04-04T16:15:16.811Z,97555.08
2019-04-04T16:21:11.210Z,97551.31
2019-04-04T16:26:46.223Z,97559.91
2019-04-04T16:29:36.910Z,97558.31
2019-04-04T16:35:10.299Z,97566.03
2019-04-04T16:38:22.822Z,97571.84
2019-04-04T16:41:02.860Z,97570.59
2019-04-04T16:47:07.153Z,97567.89
2019-04-04T16:49:57.834Z,97565.78
2019-04-04T16:56:09.567Z,97553.90
2019-04-04T17:01:43.255Z,97557.66
2019-04-04T17:07:31.337Z,97557.53
2019-04-04T17:10:42.632Z,97553.20
2019-04-04T17:13:33.268Z,97553.02
2019-04-04T17:16:23.969Z,97551.64
2019-04-04T17:19:26.211Z,97558.53
2019-04-04T17:22:29.350Z,97550.30
2019-04-04T17:25:01.522Z,97549.98
2019-04-04T17:30:55.737Z,97549.23
2019-04-04T17:33:47.101Z,97557.68
2019-04-04T17:39:12.338Z,97552.36
2019-04-04T17:42:28.233Z,97557.41
2019-04-04T17:44:49.403Z,97553.08
2019-04-04T17:47:40.083Z,97558.69
2019-04-04T17:50:58.915Z,97554.44
2019-04-04T17:53:52.405Z,97566.02
2019-04-04T17:56:32.242Z,97561.83
2019-04-04T18:02:09.218Z,97575.36
2019-04-04T18:04:59.914Z,97574.10
2019-04-04T18:08:09.960Z,97576.02
2019-04-04T18:11:00.974Z,97588.01
2019-04-04T18:13:51.608Z,97590.39
2019-04-04T18:19:25.524Z,97588.52
2019-04-04T18:22:30.267Z,97595.37
2019-04-04T18:25:03.676Z,97588.89
2019-04-04T18:28:13.524Z,97600.73
2019-04-04T18:33:49.588Z,97607.48
2019-04-04T18:36:42.689Z,97616.72
2019-04-04T18:39:26.530Z,97624.22
2019-04-04T18:42:07.584Z,97633.45
2019-04-04T18:48:06.181Z,97636.72
2019-04-04T18:50:49.773Z,97634.58
2019-04-04T18:53:22.822Z,97642.59
2019-04-04T18:56:13.554Z,97644.06
2019-04-04T18:59:04.303Z,97645.27
2019-04-04T19:01:54.968Z,97649.29
2019-04-04T19:04:45.766Z,97641.72
2019-04-04T19:07:39.440Z,97644.42
2019-04-04T19:13:25.089Z,97642.89
2019-04-04T19:19:00.030Z,97644.81
2019-04-04T19:24:16.387Z,97648.36
2019-04-04T19:29:52.180Z,97652.30
2019-04-04T19:32:42.969Z,97652.81
2019-04-04T19:35:45.636Z,97649.13
2019-04-04T19:38:17.142Z,97649.07
2019-04-04T19:46:57.004Z,97660.45
2019-04-04T19:49:47.725Z,97664.03
2019-04-04T19:52:38.384Z,97669.45
2019-04-04T19:55:29.329Z,97668.56
2019-04-04T19:58:12.463Z,97665.62
2019-04-04T20:03:48.395Z,97669.60
2019-04-04T20:06:40.892Z,97674.92
2019-04-04T20:09:31.846Z,97666.11
2019-04-04T20:12:22.601Z,97667.17
2019-04-04T20:15:15.285Z,97657.52
2019-04-04T20:18:05.988Z,97666.75
2019-04-04T20:20:56.986Z,97665.37
2019-04-04T20:23:47.657Z,97680.02
2019-04-04T20:26:38.314Z,97683.75
2019-04-04T20:29:28.951Z,97685.81
2019-04-04T20:34:43.273Z,97682.30
2019-04-04T20:37:33.925Z,97686.12
2019-04-04T20:40:43.685Z,97689.02
2019-04-04T20:43:53.627Z,97563.08
2019-04-04T20:46:44.439Z,97680.19
2019-04-04T20:49:54.169Z,97682.67
2019-04-04T20:53:04.439Z,97686.33
2019-04-04T20:55:55.116Z,97690.11
2019-04-04T20:58:45.819Z,97694.41
2019-04-04T21:04:21.427Z,97705.84
2019-04-04T21:13:32.501Z,97708.13
2019-04-04T21:19:07.355Z,97699.81
2019-04-04T21:21:51.304Z,97704.81
2019-04-04T21:24:22.595Z,97706.41
2019-04-04T21:27:13.289Z,97705.48
2019-04-04T21:30:04.163Z,97705.08
2019-04-04T21:32:54.795Z,97700.55
2019-04-04T21:35:56.874Z,97709.59
2019-04-04T21:38:28.477Z,97588.74
2019-04-04T21:41:19.127Z,97714.31
2019-04-04T21:44:09.995Z,97719.58
2019-04-04T21:47:00.676Z,97732.81
2019-04-04T21:49:59.311Z,97733.86
2019-04-04T21:52:49.969Z,97732.67
2019-04-04T21:55:58.329Z,97616.45
2019-04-04T21:58:49.015Z,97725.06
2019-04-04T22:01:39.754Z,97730.98
2019-04-04T22:04:30.497Z,97730.38
2019-04-04T22:07:21.656Z,97731.19
2019-04-04T22:10:24.345Z,97736.52
2019-04-04T22:18:44.560Z,97737.33
2019-04-04T22:21:35.519Z,97746.63
2019-04-04T22:24:26.277Z,97742.16
2019-04-04T22:33:07.281Z,97740.67
2019-04-04T22:35:58.804Z,97735.58
2019-04-04T22:41:33.625Z,97748.48
2019-04-04T22:47:10.924Z,97745.50
2019-04-04T22:50:01.538Z,97743.25
2019-04-04T22:53:11.638Z,97742.95
2019-04-04T22:56:02.295Z,97745.70
2019-04-04T22:58:52.997Z,97739.75
2019-04-04T23:04:27.988Z,97739.80
2019-04-04T23:13:05.581Z,97752.44
2019-04-04T23:15:56.296Z,97745.09
2019-04-04T23:18:46.913Z,97748.34
2019-04-04T23:21:37.514Z,97744.17
2019-04-04T23:27:22.039Z,97759.09
2019-04-04T23:29:56.073Z,97751.81
2019-04-04T23:35:49.137Z,97753.56
2019-04-04T23:38:50.454Z,97751.09
2019-04-04T23:41:42.016Z,97742.96
2019-04-04T23:44:32.627Z,97743.73
2019-04-04T23:50:08.280Z,97743.41
